Impacts METAR Board INFO
IDs:

KJFK - New York/Kennedy Int, NY, US

Updated at: 1628 UTC 16 Dec 2017
Potential Impact None Slight Moderate High
Time16/04Z 16/05Z 16/06Z 16/07Z 16/08Z 16/09Z 16/10Z 16/11Z 16/12Z 16/13Z 16/14Z 16/15Z 16/16Z
VIS10 10 10 10 10 10 10 10 10 10 10 10 10
CIG250 -- -- -- -- -- -- -- 250 -- 100 100 48
CoverBKNSCTSCTFEWFEWSCTFEWFEWBKNSCTBKNBKNBKN
FltCatVFRVFRVFRVFRVFRVFRVFRVFRVFRVFRVFRVFRVFR
WX--------------------------
WDir270270270290280270270260260250250250250
WSpd12 11 12 10 13 15 14 12 16 16 15 19 17
WGst-- -- -- -- -- 22 -- -- -- -- -- -- --
Raw hourly METARs
KJFK 160351Z 27012KT 10SM FEW012 SCT080 SCT110 BKN250 M04/M07 A2993 RMK AO2 SLP135 T10391072 $
KJFK 160451Z 27011KT 10SM SCT080 SCT110 SCT250 M04/M07 A2993 RMK AO2 SLP134 T10391067 410221067 $
KJFK 160551Z 27012KT 10SM SCT080 SCT250 M04/M07 A2993 RMK AO2 SLP134 931000 4/001 60000 T10441067 11033 21044 56003 $
KJFK 160651Z 29010KT 10SM FEW080 FEW250 M04/M07 A2994 RMK AO2 SLP137 T10391072 $
KJFK 160751Z 28013KT 10SM FEW250 M04/M07 A2997 RMK AO2 SLP147 T10391072 $
KJFK 160851Z 27015G22KT 10SM SCT250 M03/M08 A2998 RMK AO2 SLP152 T10331078 53018 $
KJFK 160951Z 27014KT 10SM FEW250 M03/M07 A2999 RMK AO2 SLP156 T10331072 $
KJFK 161051Z 26012KT 10SM FEW250 M03/M08 A3002 RMK AO2 SLP164 T10331078 $
KJFK 161151Z 26016KT 10SM FEW040 BKN250 M03/M08 A3004 RMK AO2 SLP171 4/001 70010 T10281078 11028 21044 53019 $
KJFK 161251Z 25016KT 10SM FEW040 SCT250 M02/M07 A3006 RMK AO2 SLP179 VIRGA E T10221072 $
KJFK 161351Z 25015KT 10SM FEW045 BKN100 BKN250 M01/M06 A3008 RMK AO2 SLP187 T10061061 $
KJFK 161451Z 25019KT 10SM SCT070 BKN100 BKN250 00/M06 A3009 RMK AO2 SLP190 T00001056 51019 $
KJFK 161551Z 25017KT 10SM BKN048 BKN110 BKN250 00/M06 A3007 RMK AO2 PK WND 25026/1539 SLP183 T00001061 $